Park City, UT (84098)

10:03 PM MDT on September 16, 2014 (GMT -0600)
Pineridge | Change Station
CLOSE
Current Station
Personal Weather Station
Location: Park City, UT
Elevation: 7018 ft
Nearby Weather Stations

Elev 7018 ft 40.73 °N, 111.59 °W | Updated 3 seconds ago

Clear
Clear
61.2 °F
Feels Like 61.2 °F
N
3.0
Wind Variable Wind from South
Gusts 7.0 mph

Today
High -- | Low -- °F
--% Chance of Precip.
Yesterday
High -- | Low -- °F
Precip. -- in
7:07 AM 7:33 PM
Last Quarter, 39% visible
Pressure 30.12 in
Visibility 10.0 miles
Clouds Clear
Dew Point 39 °F
Humidity 44%
Rainfall 0.00 in
Snow Depth 0 in , 0 in , 1 in
UV 0.0 out of 12
Pollen 5.40 out of 12
Air Quality Not available.
Flu Activity Not available.
METAR K36U 170355Z AUTO 00000KT 10SM CLR 15/05 A3012 RMK AO2

More Conditions Fewer Conditions

Pressure 30.12 in
Visibility 10.0 miles
Clouds Clear
Dew Point 39 °F
Humidity 44%
Rainfall 0.00 in
Snow Depth 0 in , 0 in , 1 in
UV 0.0 out of 12
Pollen 5.40 out of 12
Air Quality Not available.
Flu Activity Not available.
METAR K36U 170355Z AUTO 00000KT 10SM CLR 15/05 A3012 RMK AO2

More Conditions Fewer Conditions

10-Day Weather Forecast

Almanac

Astronomy

Sep. 16, 2014 Rise Set
Actual Time 7:07 AM MDT 7:33 PM MDT
Civil Twilight 6:40 AM MDT 8:00 PM MDT
Nautical Twilight 6:08 AM MDT 8:32 PM MDT
Astronomical Twilight 5:34 AM MDT 9:05 PM MDT
Moon 12:19 AM MDT (9/16) 3:01 PM MDT (9/16)
Length of Visible Light 13h 20m
Length of Day
12h 25m
Tomorrow will be 2m 41s shorter.
Last Quarter, 39% of the Moon is Illuminated
Sep 17
Last Quarter
Sep 24
New
Oct 1
First Quarter
Oct 8
Full
Oct 15
Last Quarter

Today's Extremes

State Highs State Lows

Community

WunderPhotos

Upload Photos

1,753,965 photos uploaded!

Nearby

Snow Depth

Station Depth Elevation
Long Valley Jct 0 in 7360 ft
Dry Fork 0 in 7160 ft
Trial Lake 1 in 9960 ft
Trout Creek 0 in 9400 ft
Five Points Lake 0 in 10920 ft

Earthquake Activity

City Distance Mag. Time & Date
No recent earthquake activity has been reported nearby.
Minimum magnitude displayed is 2.5.

Coastal Water Temperatures

Place Temperature
No Stations Reporting

Nearby Weather Stations